Mountain Home Village, California
Current Conditions -  °F | °C
As of 12:45 PM on Thursday 27 Nov 2014 (Local Time) from KSBD Reporting Station
Broken Clouds Broken Clouds  
Wind Chill: 86°   Ceiling: 20000
Heat Index: 86°   Visibility: 10mi
Dew Point: 18°   Wind: 0mph
Humidity: 8%   Direction: NA
Pressure: 30.09"   Gusts: NA
Location:  34.1048°N, 117.051°W
Report Text: KSBD 272045Z 00000KT 10SM BKN200 30/M08 A3009
Loading
Personal Weather Stations






























Interactive Weather Map New forecast layout! Learn more

10-Day Weather Forecast

Advertisements
Track Severe Weather on mobile